Flight Track Log - Related Links

Times and Time Zones

All times are in EDT time to prevent confusion due to time zone crossing. See the FLG4099 flight status page for this flight to view local times or setup timezone preferences in your user account.

Time Position Orientation Groundspeed Altitude Reporting Facility
EDT Latitude Longitude Course Direction KTS MPH feet Rate Location/Type
Mon 07:06:00 AM 44.3985 -73.5518 253° West  Level FlightAware Approximate
Mon 07:06:49 AM 44.3911 -73.3494 255° West 254 292 8,100  Level Boston Center
Mon 07:07:00 AM 44.3702 -73.6838 253° West  Level FlightAware Approximate
Mon 07:07:49 AM 44.3756 -73.4536 258° West 274 315 11,000  Level Boston Center
Mon 07:08:00 AM 44.3498 -73.8186 259° West  Level FlightAware Approximate
Mon 07:08:49 AM 44.3578 -73.5753 258° West 296 341 12,400  Level Boston Center
Mon 07:09:00 AM 44.3296 -73.9535 256° West  Level FlightAware Approximate
Mon 07:09:49 AM 44.3378 -73.7028 258° West 330 380 14,100  Level Boston Center
Mon 07:10:00 AM 44.3051 -74.0869 256° West  Level FlightAware Approximate
Mon 07:10:49 AM 44.3175 -73.8386 258° West 344 396 15,600  Level Boston Center
Mon 07:11:00 AM 44.2804 -74.2203 256° West  Level FlightAware Approximate
Mon 07:11:49 AM 44.2969 -73.9772 258° West 361 415 17,200  Level Boston Center
Mon 07:12:00 AM 44.2556 -74.3534 255° West  Level FlightAware Approximate
Mon 07:12:49 AM 44.2742 -74.1131 257° West 361 415 18,800  Level Boston Center
Mon 07:13:49 AM 44.2578 -74.2314 259° West 361 415 20,200 1,400 Climbing Boston Center
Mon 07:14:49 AM 44.2347 -74.3669 257° West 361 415 21,600 1,250 Climbing Boston Center
Mon 07:15:49 AM 44.2117 -74.5053 257° West 361 415 22,700 900 Climbing Boston Center
Mon 07:16:49 AM 44.1900 -74.6522 258° West 373 429 23,400 700 Climbing Boston Center
Mon 07:17:49 AM 44.1664 -74.7989 257° West 385 443 24,100 700 Climbing Boston Center
Mon 07:18:49 AM 44.1422 -74.9483 257° West 392 451 24,800 700 Climbing Boston Center
Mon 07:19:49 AM 44.1158 -75.1064 257° West 402 463 25,500 700 Climbing Boston Center
Mon 07:20:49 AM 44.0911 -75.2644 258° West 417 480 26,200 700 Climbing Boston Center
Mon 07:21:49 AM 44.0644 -75.4161 256° West 417 480 26,900 700 Climbing Boston Center
Mon 07:22:49 AM 44.0372 -75.5739 257° West 417 480 27,600 650 Climbing Boston Center
Mon 07:23:49 AM 44.0119 -75.7311 257° West 417 480 28,200 550 Climbing Boston Center
Mon 07:24:49 AM 43.9867 -75.8858 257° West 417 480 28,700 500 Climbing Boston Center
Mon 07:25:49 AM 43.9589 -76.0400 256° West 417 480 29,200 500 Climbing Boston Center
Mon 07:26:49 AM 43.9517 -76.2011 266° West 412 474 29,700 400 Climbing Boston Center
Mon 07:27:49 AM 43.9464 -76.3650 267° West 412 474 30,000 150 Climbing Boston Center
Mon 07:28:49 AM 43.9450 -76.5236 269° West 417 480 30,000  Level Boston Center
Mon 07:30:04 AM 43.9333 -76.7167 265° West 410 472 30,000  Level Toronto Center
Mon 07:31:04 AM 43.9167 -76.8500 260° West 420 483 30,000  Level Toronto Center
Mon 07:32:04 AM 43.9167 -77.0333 270° West 410 472 30,000  Level Toronto Center
Mon 07:33:04 AM 43.9000 -77.1833 261° West 410 472 30,000  Level Toronto Center
Mon 07:34:04 AM 43.9000 -77.3333 270° West 420 483 30,000  Level Toronto Center
Mon 07:35:04 AM 43.9000 -77.5000 270° West 410 472 30,000  Level Toronto Center
Mon 07:36:04 AM 43.9000 -77.6667 270° West 410 472 30,000  Level Toronto Center
Mon 07:37:04 AM 43.8833 -77.8333 262° West 410 472 30,000  Level Toronto Center
Mon 07:38:04 AM 43.8833 -77.9833 270° West 410 472 30,000  Level Toronto Center
Mon 07:39:04 AM 43.8667 -78.1500 262° West 420 483 30,000  Level Toronto Center
Mon 07:40:04 AM 43.8333 -78.3000 253° West 420 483 30,000  Level Toronto Center
Mon 07:41:04 AM 43.7667 -78.4333 235° Southwest 420 483 30,000  Level Toronto Center
Mon 07:42:04 AM 43.7167 -78.5667 243° Southwest 420 483 30,000  Level Toronto Center
Mon 07:43:04 AM 43.6500 -78.7167 238° Southwest 420 483 30,000  Level Toronto Center
Mon 07:44:04 AM 43.6000 -78.8500 243° Southwest 420 483 30,000  Level Toronto Center
Mon 07:45:04 AM 43.5333 -78.9833 235° Southwest 420 483 30,000  Level Toronto Center
Mon 07:46:04 AM 43.4833 -79.1333 245° Southwest 420 483 30,000  Level Toronto Center
Mon 07:47:04 AM 43.4167 -79.2667 235° Southwest 420 483 30,000  Level Toronto Center
Mon 07:48:04 AM 43.3500 -79.4000 236° Southwest 420 483 30,000  Level Toronto Center
Mon 07:49:04 AM 43.3000 -79.5333 243° Southwest 420 483 30,000  Level Toronto Center
Mon 07:50:04 AM 43.2333 -79.6833 239° Southwest 420 483 30,000  Level Toronto Center
Mon 07:51:04 AM 43.1833 -79.8167 243° Southwest 420 483 30,000  Level Toronto Center
Mon 07:52:04 AM 43.1167 -79.9500 236° Southwest 430 495 30,000 -300 Level Toronto Center
Mon 07:53:04 AM 43.0500 -80.0833 236° Southwest 430 495 29,400 -1,250 Descending Toronto Center
Mon 07:54:04 AM 42.9833 -80.2500 241° Southwest 430 495 27,500 -1,850 Descending Toronto Center
Mon 07:55:04 AM 42.9333 -80.3833 243° Southwest 420 483 25,700 -1,800 Descending Toronto Center
Mon 07:56:04 AM 42.8667 -80.5167 236° Southwest 420 483 23,900 -1,604 Descending Toronto Center
Mon 07:56:45 AM 42.8353 -80.6058 244° Southwest 425 489 23,000 -535 Descending Cleveland Center
Mon 07:57:45 AM 42.7706 -80.7558 240° Southwest 425 489 23,000  Level Cleveland Center
Mon 07:58:45 AM 42.7078 -80.8911 238° Southwest 425 489 23,000  Level Cleveland Center
Mon 07:59:45 AM 42.6886 -81.0436 260° West 420 483 23,000  Level Cleveland Center
Mon 08:00:45 AM 42.6711 -81.2072 262° West 420 483 23,000  Level Cleveland Center
Mon 08:01:45 AM 42.6514 -81.3594 260° West 430 495 23,000  Level Cleveland Center
Mon 08:02:45 AM 42.6336 -81.5231 262° West 430 495 23,000  Level Cleveland Center
Mon 08:03:46 AM 42.6156 -81.6778 261° West 424 488 23,000 -300 Level Cleveland Center
Mon 08:04:45 AM 42.5953 -81.8186 259° West 429 494 22,400 -1,400 Descending Cleveland Center
Mon 08:05:46 AM 42.5789 -81.9675 262° West 419 482 20,200 -2,150 Descending Cleveland Center
Mon 08:06:45 AM 42.5606 -82.1081 260° West 407 468 18,100 -2,087 Descending Cleveland Center
Mon 08:07:41 AM 42.5461 -82.2458 262° West 366 421 16,200 -2,100 Descending Cleveland Center
Mon 08:08:05 AM 42.5389 -82.3106 261° West 365 420 15,300 -1,875 Descending Cleveland Center
Mon 08:08:45 AM 42.5275 -82.3836 258° West 380 437 14,200 -1,869 Descending Cleveland Center
Mon 08:09:06 AM 42.5222 -82.4453 263° West 365 420 13,400 -1,900 Descending Cleveland Center
Mon 08:09:45 AM 42.5106 -82.5153 257° West 370 426 12,300 -1,444 Descending Cleveland Center
Mon 08:10:00 AM 42.5014 -82.5631 255° West 356 410 12,100 -787 Descending Cleveland Center
Mon 08:10:46 AM 42.4731 -82.6381 243° Southwest 365 420 11,500 -1,082 Descending Cleveland Center
Mon 08:11:01 AM 42.4597 -82.6856 249° West 348 400 11,000 -1,119 Descending Cleveland Center
Mon 08:11:45 AM 42.4378 -82.7467 244° Southwest 342 394 10,400 -984 Descending Cleveland Center
Mon 08:12:02 AM 42.4308 -82.7858 257° West 278 320 10,000 -1,481 Descending Cleveland Center
Mon 08:13:02 AM 42.4122 -82.8781 255° West 252 290 8,500 -1,456 Descending Cleveland Center
Mon 08:13:45 AM 42.4047 -82.9453 261° West 280 322 7,500 -1,456 Descending Cleveland Center
Mon 08:14:45 AM 42.3983 -83.0433 265° West 275 316 6,000 -1,488 Descending Cleveland Center
Mon 08:15:46 AM 42.3900 -83.1444 264° West 275 316 4,500 -1,450 Descending Cleveland Center
Mon 08:16:45 AM 42.3589 -83.2275 243° Southwest 261 300 3,100 -1,139 Descending Cleveland Center
Mon 08:17:05 AM 42.3375 -83.2489 216° Southwest 212 244 3,000 -300 Descending Cleveland Center

Login

Don't have an account? Register now (free) for customized features, flight alerts, and more!